createdAt,value
2022-12-25T00:04:43.138Z,7.33
2022-12-25T00:14:56.110Z,7.08
2022-12-25T00:25:09.115Z,6.93
2022-12-25T00:35:22.100Z,6.77
2022-12-25T00:45:35.162Z,6.94
2022-12-25T00:55:48.106Z,7.00
2022-12-25T01:06:09.191Z,7.08
2022-12-25T01:16:24.169Z,7.37
2022-12-25T01:26:37.201Z,7.37
2022-12-25T01:36:57.170Z,7.33
2022-12-25T01:47:16.180Z,7.30
2022-12-25T01:57:40.160Z,7.30
2022-12-25T02:07:54.206Z,7.22
2022-12-25T02:18:10.188Z,7.35
2022-12-25T02:28:34.212Z,7.32
2022-12-25T02:39:11.185Z,7.28
2022-12-25T02:49:52.211Z,7.20
2022-12-25T03:00:25.191Z,7.27
2022-12-25T03:10:57.247Z,7.31
2022-12-25T03:21:29.191Z,7.27
2022-12-25T03:31:44.214Z,7.13
2022-12-25T03:42:19.269Z,7.16
2022-12-25T03:52:57.252Z,7.09
2022-12-25T04:03:28.400Z,7.07
2022-12-25T04:14:00.276Z,7.11
2022-12-25T04:24:32.310Z,7.10
2022-12-25T04:35:03.282Z,7.10
2022-12-25T04:45:15.311Z,6.99
2022-12-25T04:55:28.290Z,6.97
2022-12-25T05:05:41.323Z,7.06
2022-12-25T05:15:54.352Z,7.03
2022-12-25T05:26:07.297Z,6.67
2022-12-25T05:36:20.299Z,6.28
2022-12-25T05:46:33.389Z,6.03
2022-12-25T05:56:46.311Z,5.87
2022-12-25T06:06:59.376Z,5.68
2022-12-25T06:17:12.362Z,5.37
2022-12-25T06:27:25.359Z,5.18
2022-12-25T06:37:39.324Z,5.16
2022-12-25T06:47:52.373Z,4.95
2022-12-25T06:58:05.378Z,4.88
2022-12-25T07:08:18.390Z,4.85
2022-12-25T07:18:31.406Z,4.95
2022-12-25T07:28:44.445Z,5.24
2022-12-25T07:38:58.400Z,5.75
2022-12-25T07:49:18.406Z,6.66
2022-12-25T07:59:31.388Z,7.03
2022-12-25T08:09:44.448Z,8.42
2022-12-25T08:19:57.475Z,8.99
2022-12-25T08:30:10.484Z,10.28
2022-12-25T08:40:23.441Z,11.10
2022-12-25T08:50:42.467Z,10.73
2022-12-25T09:00:56.509Z,12.22
2022-12-25T09:11:15.445Z,12.85
2022-12-25T09:21:28.484Z,13.16
2022-12-25T09:31:41.455Z,13.47
2022-12-25T09:42:04.491Z,14.04
2022-12-25T09:52:45.477Z,13.81
2022-12-25T10:03:16.556Z,14.45
2022-12-25T10:13:44.494Z,14.54
2022-12-25T10:24:01.515Z,14.12
2022-12-25T10:34:14.566Z,14.28
2022-12-25T10:44:31.523Z,13.60
2022-12-25T10:54:44.531Z,12.63
2022-12-25T11:04:58.540Z,13.34
2022-12-25T11:15:50.579Z,12.50
2022-12-25T11:26:15.573Z,13.52
2022-12-25T11:36:28.544Z,13.60
2022-12-25T11:46:48.617Z,13.25
2022-12-25T11:57:03.594Z,12.90
2022-12-25T12:07:45.591Z,13.39
2022-12-25T12:17:58.606Z,12.79
2022-12-25T12:28:11.584Z,12.76
2022-12-25T12:38:28.623Z,11.70
2022-12-25T12:48:50.571Z,11.47
2022-12-25T12:59:03.638Z,12.06
2022-12-25T13:09:48.597Z,11.72
2022-12-25T13:20:08.640Z,11.62
2022-12-25T13:30:22.614Z,11.19
2022-12-25T13:40:35.651Z,10.74
2022-12-25T13:51:04.673Z,10.19
2022-12-25T14:01:19.846Z,10.00
2022-12-25T14:11:34.678Z,9.72
2022-12-25T14:21:56.649Z,9.55
2022-12-25T14:32:12.693Z,9.16
2022-12-25T14:42:29.663Z,8.74
2022-12-25T14:52:56.725Z,8.30
2022-12-25T15:03:11.845Z,8.07
2022-12-25T15:13:27.743Z,7.70
2022-12-25T15:23:40.673Z,7.68
2022-12-25T15:33:53.785Z,7.26
2022-12-25T15:44:06.717Z,6.72
2022-12-25T15:54:19.748Z,6.34
2022-12-25T16:04:33.763Z,6.07
2022-12-25T16:14:46.784Z,6.17
2022-12-25T16:24:59.736Z,6.04
2022-12-25T16:35:12.779Z,6.05
2022-12-25T16:45:25.768Z,6.06
2022-12-25T16:55:38.803Z,5.72
2022-12-25T17:05:51.765Z,5.65
2022-12-25T17:16:04.864Z,5.54
2022-12-25T17:26:17.784Z,5.49
2022-12-25T17:36:30.842Z,5.53
2022-12-25T17:46:43.786Z,5.58
2022-12-25T17:56:56.856Z,5.74
2022-12-25T18:07:10.815Z,5.82
2022-12-25T18:17:22.867Z,5.77
2022-12-25T18:27:35.795Z,5.85
2022-12-25T18:37:48.868Z,5.80
2022-12-25T18:48:02.855Z,5.80
2022-12-25T18:58:15.864Z,6.05
2022-12-25T19:08:28.840Z,5.90
2022-12-25T19:18:41.904Z,5.85
2022-12-25T19:28:54.859Z,5.84
2022-12-25T19:39:08.041Z,5.76
2022-12-25T19:49:27.910Z,5.78
2022-12-25T19:59:40.891Z,5.84
2022-12-25T20:09:53.941Z,5.83
2022-12-25T20:20:06.916Z,5.75
2022-12-25T20:30:19.914Z,5.73
2022-12-25T20:40:52.978Z,5.55
2022-12-25T20:51:22.970Z,5.54
2022-12-25T21:01:38.000Z,5.46
2022-12-25T21:11:50.997Z,5.36
2022-12-25T21:22:03.961Z,5.42
2022-12-25T21:32:34.981Z,5.23
2022-12-25T21:42:47.977Z,5.36
2022-12-25T21:53:07.002Z,5.36
2022-12-25T22:03:20.065Z,5.28
2022-12-25T22:13:50.993Z,5.12
2022-12-25T22:24:03.983Z,5.10
2022-12-25T22:34:17.045Z,5.18
2022-12-25T22:44:35.013Z,5.12
2022-12-25T22:54:48.031Z,5.08
2022-12-25T23:05:00.999Z,5.09
2022-12-25T23:15:14.052Z,5.18
2022-12-25T23:25:46.011Z,5.17
2022-12-25T23:35:59.070Z,4.90
2022-12-25T23:46:12.121Z,4.89
2022-12-25T23:56:25.048Z,4.73
